Terminal Aerodrome Forecast
Issued by NWS Los Angeles, CA

Home | Current Version | Previous Version | Text Only | Print | Product List | Glossary On
Versions: 1 2 3 4 5 6 7 8 9 10 11 12 13 14 15 16 17 18 19 20 21 22 23 24 25 26 27 28 29
000
FTUS46 KLOX 050100 AAA
TAFSMX
TAF AMD
KSMX 050104Z 0501/0524 31015KT P6SM BKN030
     FM050300 VRB03KT P6SM OVC020
     FM051200 VRB03KT P6SM OVC025
     FM051900 29010KT P6SM BKN030
     FM052100 30015KT P6SM SCT030=

USA.gov is the U.S. government's official web portal to all federal, state and local government web resources and services.